createdAt,value
2017-11-21T00:02:01.605Z,4.86
2017-11-21T00:04:29.235Z,4.83
2017-11-21T00:06:57.088Z,4.85
2017-11-21T00:09:24.677Z,4.95
2017-11-21T00:11:52.333Z,4.95
2017-11-21T00:14:19.929Z,4.95
2017-11-21T00:16:47.544Z,4.97
2017-11-21T00:19:15.127Z,5.01
2017-11-21T00:21:43.065Z,4.99
2017-11-21T00:24:10.690Z,4.83
2017-11-21T00:26:38.334Z,4.82
2017-11-21T00:29:06.259Z,4.81
2017-11-21T00:31:33.843Z,4.83
2017-11-21T00:34:01.443Z,4.83
2017-11-21T00:36:29.057Z,4.87
2017-11-21T00:38:56.659Z,4.92
2017-11-21T00:41:24.299Z,4.98
2017-11-21T00:43:51.899Z,5.00
2017-11-21T00:46:19.806Z,4.97
2017-11-21T00:48:47.425Z,5.03
2017-11-21T00:51:15.010Z,5.05
2017-11-21T00:53:42.892Z,5.00
2017-11-21T00:56:10.521Z,4.94
2017-11-21T00:58:38.110Z,4.89
2017-11-21T01:01:05.736Z,4.74
2017-11-21T01:03:33.339Z,4.78
2017-11-21T01:06:00.973Z,4.87
2017-11-21T01:08:28.559Z,4.90
2017-11-21T01:10:56.140Z,4.84
2017-11-21T01:13:23.763Z,4.80
2017-11-21T01:15:51.383Z,4.86
2017-11-21T01:18:19.011Z,4.78
2017-11-21T01:20:46.620Z,4.89
2017-11-21T01:23:14.201Z,4.86
2017-11-21T01:25:41.837Z,4.87
2017-11-21T01:28:09.762Z,4.77
2017-11-21T01:30:37.730Z,4.67
2017-11-21T01:33:05.377Z,4.69
2017-11-21T01:35:32.957Z,4.75
2017-11-21T01:38:00.580Z,4.85
2017-11-21T01:40:28.591Z,4.84
2017-11-21T01:42:56.214Z,4.82
2017-11-21T01:45:23.808Z,4.69
2017-11-21T01:47:51.389Z,4.77
2017-11-21T01:50:18.993Z,4.76
2017-11-21T01:52:46.593Z,4.73
2017-11-21T01:55:14.219Z,4.76
2017-11-21T01:57:41.829Z,4.83
2017-11-21T02:00:09.453Z,4.87
2017-11-21T02:02:37.068Z,4.92
2017-11-21T02:05:04.714Z,4.98
2017-11-21T02:07:32.340Z,4.96
2017-11-21T02:09:59.924Z,4.80
2017-11-21T02:12:27.545Z,4.87
2017-11-21T02:14:55.157Z,4.94
2017-11-21T02:17:22.746Z,4.88
2017-11-21T02:19:50.370Z,4.80
2017-11-21T02:22:17.969Z,4.80
2017-11-21T02:24:45.565Z,4.68
2017-11-21T02:27:13.175Z,4.72
2017-11-21T02:29:40.761Z,4.76
2017-11-21T02:32:08.398Z,4.78
2017-11-21T02:34:35.987Z,4.75
2017-11-21T02:37:03.577Z,4.73
2017-11-21T02:39:31.237Z,4.74
2017-11-21T02:41:59.141Z,4.72
2017-11-21T02:44:26.765Z,4.66
2017-11-21T02:46:54.359Z,4.80
2017-11-21T02:49:21.941Z,4.82
2017-11-21T02:51:49.567Z,4.71
2017-11-21T02:54:17.155Z,4.74
2017-11-21T02:56:44.787Z,4.73
2017-11-21T02:59:12.378Z,4.83
2017-11-21T03:01:39.969Z,4.84
2017-11-21T03:04:07.583Z,4.82
2017-11-21T03:06:35.221Z,4.76
2017-11-21T03:09:02.845Z,4.75
2017-11-21T03:11:30.433Z,4.68
2017-11-21T03:13:58.022Z,4.71
2017-11-21T03:16:25.630Z,4.71
2017-11-21T03:18:53.245Z,4.78
2017-11-21T03:21:32.714Z,4.80
2017-11-21T03:24:12.098Z,4.79
2017-11-21T03:26:39.744Z,4.76
2017-11-21T03:29:07.321Z,4.80
2017-11-21T03:31:34.950Z,4.69
2017-11-21T03:34:02.567Z,4.65
2017-11-21T03:36:30.195Z,4.65
2017-11-21T03:38:57.817Z,4.68
2017-11-21T03:41:25.406Z,4.75
2017-11-21T03:43:53.005Z,4.70
2017-11-21T03:46:20.613Z,4.64
2017-11-21T03:48:48.197Z,4.68
2017-11-21T03:51:15.845Z,4.61
2017-11-21T03:53:43.438Z,4.65
2017-11-21T03:56:11.063Z,4.66
2017-11-21T03:58:38.683Z,4.65
2017-11-21T04:01:07.307Z,4.67
2017-11-21T04:03:34.987Z,4.72
2017-11-21T04:06:02.588Z,4.70
2017-11-21T04:08:30.180Z,4.77
2017-11-21T04:10:57.798Z,4.87
2017-11-21T04:13:25.389Z,4.99
2017-11-21T04:15:53.008Z,4.87
2017-11-21T04:18:20.604Z,4.86
2017-11-21T04:20:48.482Z,4.99
2017-11-21T04:23:16.102Z,4.89
2017-11-21T04:25:43.697Z,4.84
2017-11-21T04:28:11.341Z,4.83
2017-11-21T04:30:38.925Z,4.79
2017-11-21T04:33:06.553Z,4.77
2017-11-21T04:35:34.162Z,4.82
2017-11-21T04:38:01.771Z,4.93
2017-11-21T04:40:29.384Z,4.99
2017-11-21T04:42:57.005Z,4.94
2017-11-21T04:45:24.636Z,4.94
2017-11-21T04:47:52.489Z,4.95
2017-11-21T04:50:20.092Z,4.82
2017-11-21T04:52:47.712Z,4.85
2017-11-21T04:55:15.325Z,4.83
2017-11-21T04:57:42.971Z,4.88
2017-11-21T05:00:10.586Z,4.93
2017-11-21T05:02:38.212Z,4.93
2017-11-21T05:05:05.871Z,4.91
2017-11-21T05:07:33.807Z,5.02
2017-11-21T05:10:01.457Z,5.09
2017-11-21T05:12:29.049Z,5.03
2017-11-21T05:14:56.638Z,5.02
2017-11-21T05:17:24.358Z,4.94
2017-11-21T05:19:51.933Z,4.99
2017-11-21T05:22:19.563Z,4.94
2017-11-21T05:24:47.441Z,4.89
2017-11-21T05:27:15.025Z,4.86
2017-11-21T05:29:42.676Z,4.78
2017-11-21T05:32:26.140Z,4.86
2017-11-21T05:34:53.770Z,4.67
2017-11-21T05:37:21.409Z,4.65
2017-11-21T05:39:48.997Z,4.67
2017-11-21T05:42:16.612Z,4.61
2017-11-21T05:44:44.318Z,4.69
2017-11-21T05:47:11.959Z,4.72
2017-11-21T05:49:39.644Z,4.72
2017-11-21T05:52:07.234Z,4.75
2017-11-21T05:54:35.008Z,4.75
2017-11-21T05:57:02.608Z,4.81
2017-11-21T05:59:30.246Z,4.68
2017-11-21T06:01:57.830Z,4.69
2017-11-21T06:04:25.517Z,4.77
2017-11-21T06:06:53.141Z,4.68
2017-11-21T06:09:20.733Z,4.63
2017-11-21T06:11:48.360Z,4.64
2017-11-21T06:14:16.191Z,4.70
2017-11-21T06:16:43.786Z,4.71
2017-11-21T06:19:11.693Z,4.75
2017-11-21T06:21:39.365Z,4.66
2017-11-21T06:24:07.330Z,4.64
2017-11-21T06:26:34.938Z,4.68
2017-11-21T06:29:02.532Z,4.68
2017-11-21T06:31:30.152Z,4.73
2017-11-21T06:33:57.759Z,4.67
2017-11-21T06:36:25.365Z,4.72
2017-11-21T06:38:53.001Z,4.72
2017-11-21T06:41:20.626Z,4.71
2017-11-21T06:43:48.258Z,4.71
2017-11-21T06:46:16.190Z,4.79
2017-11-21T06:48:43.794Z,4.80
2017-11-21T06:51:11.735Z,4.80
2017-11-21T06:53:39.403Z,4.74
2017-11-21T06:56:07.024Z,4.71
2017-11-21T06:58:34.625Z,4.71
2017-11-21T07:01:02.213Z,4.71
2017-11-21T07:03:29.838Z,4.66
2017-11-21T07:05:57.704Z,4.69
2017-11-21T07:08:25.369Z,4.74
2017-11-21T07:10:52.959Z,4.83
2017-11-21T07:13:20.598Z,4.87
2017-11-21T07:15:48.562Z,4.82
2017-11-21T07:18:16.165Z,4.77
2017-11-21T07:20:43.793Z,4.84
2017-11-21T07:23:11.401Z,4.99
2017-11-21T07:25:39.319Z,5.02
2017-11-21T07:28:06.939Z,5.00
2017-11-21T07:30:34.543Z,5.04
2017-11-21T07:33:02.203Z,4.95
2017-11-21T07:35:29.812Z,4.98
2017-11-21T07:38:00.405Z,5.01
2017-11-21T07:40:28.074Z,5.06
2017-11-21T07:42:55.697Z,5.06
2017-11-21T07:45:23.348Z,5.00
2017-11-21T07:47:51.181Z,5.13
2017-11-21T07:50:18.824Z,5.15
2017-11-21T07:52:46.482Z,5.23
2017-11-21T07:55:14.167Z,5.20
2017-11-21T07:57:41.837Z,5.19
2017-11-21T08:00:09.476Z,5.21
2017-11-21T08:02:37.440Z,5.20
2017-11-21T08:05:05.073Z,5.28
2017-11-21T08:07:32.656Z,5.24
2017-11-21T08:10:00.295Z,5.24
2017-11-21T08:12:27.898Z,5.21
2017-11-21T08:14:55.750Z,5.24
2017-11-21T08:17:23.617Z,5.20
2017-11-21T08:19:51.443Z,5.21
2017-11-21T08:22:19.407Z,5.27
2017-11-21T08:24:47.778Z,5.25
2017-11-21T08:27:15.403Z,5.27
2017-11-21T08:29:43.063Z,5.34
2017-11-21T08:32:10.700Z,5.39
2017-11-21T08:34:38.367Z,5.39
2017-11-21T08:37:05.973Z,5.40
2017-11-21T08:39:33.937Z,5.48
2017-11-21T08:42:01.564Z,5.51
2017-11-21T08:44:29.212Z,5.49
2017-11-21T08:46:56.901Z,5.50
2017-11-21T08:49:24.485Z,5.47
2017-11-21T08:51:52.230Z,5.48
2017-11-21T08:54:19.878Z,5.50
2017-11-21T08:56:57.082Z,5.49
2017-11-21T08:59:32.855Z,5.42
2017-11-21T09:02:08.255Z,5.46
2017-11-21T09:05:04.041Z,5.40
2017-11-21T09:07:31.855Z,5.37
2017-11-21T09:10:06.127Z,5.41
2017-11-21T09:12:43.050Z,5.48
2017-11-21T09:15:12.369Z,5.48
2017-11-21T09:17:39.989Z,5.50
2017-11-21T09:20:07.614Z,5.52
2017-11-21T09:22:35.236Z,5.60
2017-11-21T09:25:02.868Z,5.71
2017-11-21T09:27:34.585Z,5.79
2017-11-21T09:30:02.492Z,5.78
2017-11-21T09:32:30.150Z,5.86
2017-11-21T09:34:57.775Z,5.94
2017-11-21T09:37:25.517Z,5.98
2017-11-21T09:39:53.211Z,5.98
2017-11-21T09:42:21.175Z,6.02
2017-11-21T09:44:48.773Z,6.02
2017-11-21T09:47:16.541Z,6.03
2017-11-21T09:49:44.189Z,6.03
2017-11-21T09:52:11.828Z,6.10
2017-11-21T09:54:39.464Z,6.12
2017-11-21T09:57:07.071Z,6.11
2017-11-21T09:59:34.711Z,6.10
2017-11-21T10:02:02.306Z,6.09
2017-11-21T10:04:30.001Z,5.99
2017-11-21T10:06:57.628Z,5.98
2017-11-21T10:09:25.566Z,6.06
2017-11-21T10:11:53.228Z,6.12
2017-11-21T10:14:21.092Z,6.10
2017-11-21T10:16:48.697Z,6.04
2017-11-21T10:19:16.339Z,6.03
2017-11-21T10:21:44.117Z,6.00
2017-11-21T10:24:11.763Z,6.01
2017-11-21T10:26:39.390Z,5.99
2017-11-21T10:29:06.984Z,5.91
2017-11-21T10:31:34.566Z,5.98
2017-11-21T10:34:03.060Z,5.98
2017-11-21T10:36:30.649Z,6.06
2017-11-21T10:38:58.224Z,6.07
2017-11-21T10:41:25.909Z,6.05
2017-11-21T10:43:53.526Z,6.08
2017-11-21T10:46:21.170Z,6.00
2017-11-21T10:48:49.101Z,6.02
2017-11-21T10:51:16.690Z,6.09
2017-11-21T10:53:44.313Z,6.16
2017-11-21T10:56:12.189Z,6.12
2017-11-21T10:58:40.172Z,6.09
2017-11-21T11:01:07.827Z,6.05
2017-11-21T11:03:35.407Z,6.10
2017-11-21T11:06:03.044Z,6.13
2017-11-21T11:08:30.919Z,6.17
2017-11-21T11:10:58.558Z,6.33
2017-11-21T11:13:26.157Z,6.40
2017-11-21T11:15:53.748Z,6.35
2017-11-21T11:18:21.353Z,6.30
2017-11-21T11:20:49.000Z,6.31
2017-11-21T11:23:16.916Z,6.30
2017-11-21T11:25:44.594Z,6.32
2017-11-21T11:28:12.188Z,6.31
2017-11-21T11:30:39.810Z,6.32
2017-11-21T11:33:07.520Z,6.33
2017-11-21T11:35:35.416Z,6.33
2017-11-21T11:38:03.042Z,6.34
2017-11-21T11:40:30.630Z,6.30
2017-11-21T11:42:58.248Z,6.24
2017-11-21T11:45:25.830Z,6.21
2017-11-21T11:47:53.456Z,6.27
2017-11-21T11:50:21.087Z,6.34
2017-11-21T11:52:48.758Z,6.43
2017-11-21T11:55:16.415Z,6.51
2017-11-21T11:57:45.060Z,6.56
2017-11-21T12:00:15.330Z,6.60
2017-11-21T12:02:43.393Z,6.55
2017-11-21T12:05:11.033Z,6.64
2017-11-21T12:07:38.693Z,6.76
2017-11-21T12:10:09.709Z,6.70
2017-11-21T12:12:38.649Z,6.53
2017-11-21T12:15:06.264Z,6.50
2017-11-21T12:17:33.870Z,6.55
2017-11-21T12:20:01.497Z,6.53
2017-11-21T12:22:29.080Z,6.49
2017-11-21T12:24:57.079Z,6.55
2017-11-21T12:27:24.693Z,6.62
2017-11-21T12:29:52.287Z,6.56
2017-11-21T12:32:19.918Z,6.41
2017-11-21T12:34:47.627Z,6.40
2017-11-21T12:37:15.287Z,6.40
2017-11-21T12:39:42.885Z,6.49
2017-11-21T12:42:10.484Z,6.51
2017-11-21T12:44:38.135Z,6.56
2017-11-21T12:47:05.731Z,6.61
2017-11-21T12:49:33.372Z,6.57
2017-11-21T12:52:01.300Z,6.78
2017-11-21T12:54:28.971Z,6.83
2017-11-21T12:56:56.631Z,6.78
2017-11-21T12:59:24.301Z,6.80
2017-11-21T13:01:52.162Z,6.81
2017-11-21T13:04:20.004Z,6.71
2017-11-21T13:06:47.655Z,6.71
2017-11-21T13:09:15.523Z,6.69
2017-11-21T13:11:43.385Z,6.64
2017-11-21T13:14:11.048Z,6.60
2017-11-21T13:16:38.666Z,6.63
2017-11-21T13:19:07.182Z,6.61
2017-11-21T13:21:34.849Z,6.68
2017-11-21T13:24:02.487Z,6.63
2017-11-21T13:26:30.129Z,6.59
2017-11-21T13:28:57.749Z,6.62
2017-11-21T13:31:25.359Z,6.63
2017-11-21T13:33:52.974Z,6.67
2017-11-21T13:36:20.607Z,6.67
2017-11-21T13:38:48.501Z,6.70
2017-11-21T13:41:16.131Z,6.74
2017-11-21T13:43:43.730Z,6.75
2017-11-21T13:46:11.373Z,6.79
2017-11-21T13:48:39.259Z,6.75
2017-11-21T13:51:06.890Z,6.78
2017-11-21T13:53:34.521Z,6.79
2017-11-21T13:56:02.173Z,6.76
2017-11-21T13:58:29.805Z,6.73
2017-11-21T14:00:57.977Z,6.67
2017-11-21T14:03:25.651Z,6.70
2017-11-21T14:05:53.249Z,6.72
2017-11-21T14:08:20.836Z,6.80
2017-11-21T14:10:48.462Z,6.85
2017-11-21T14:13:16.297Z,6.87
2017-11-21T14:15:43.918Z,6.78
2017-11-21T14:18:11.526Z,6.73
2017-11-21T14:20:39.108Z,6.73
2017-11-21T14:23:06.717Z,6.80
2017-11-21T14:25:34.613Z,6.72
2017-11-21T14:28:02.249Z,6.72
2017-11-21T14:30:29.838Z,6.76
2017-11-21T14:32:57.451Z,6.76
2017-11-21T14:35:25.068Z,6.69
2017-11-21T14:37:52.934Z,6.66
2017-11-21T14:40:20.594Z,6.63
2017-11-21T14:42:48.183Z,6.69
2017-11-21T14:45:15.834Z,6.65
2017-11-21T14:47:43.454Z,6.58
2017-11-21T14:50:11.033Z,6.63
2017-11-21T14:52:38.673Z,6.59
2017-11-21T14:55:06.259Z,6.47
2017-11-21T14:57:33.863Z,6.48
2017-11-21T15:00:01.797Z,6.55
2017-11-21T15:02:29.419Z,6.63
2017-11-21T15:04:57.087Z,6.64
2017-11-21T15:07:24.873Z,6.54
2017-11-21T15:09:52.499Z,6.55
2017-11-21T15:12:20.142Z,6.51
2017-11-21T15:14:47.774Z,6.59
2017-11-21T15:17:15.986Z,6.57
2017-11-21T15:19:43.596Z,6.53
2017-11-21T15:22:11.177Z,6.57
2017-11-21T15:24:38.841Z,6.57
2017-11-21T15:27:06.426Z,6.52
2017-11-21T15:29:34.044Z,6.46
2017-11-21T15:32:01.635Z,6.49
2017-11-21T15:34:29.223Z,6.49
2017-11-21T15:36:56.849Z,6.51
2017-11-21T15:39:24.430Z,6.63
2017-11-21T15:41:52.065Z,6.57
2017-11-21T15:44:19.676Z,6.37
2017-11-21T15:46:47.335Z,6.37
2017-11-21T15:49:14.980Z,6.42
2017-11-21T15:51:42.562Z,6.44
2017-11-21T15:54:10.196Z,6.44
2017-11-21T15:56:37.801Z,6.41
2017-11-21T15:59:05.404Z,6.54
2017-11-21T16:01:33.384Z,6.50
2017-11-21T16:04:00.976Z,6.58
2017-11-21T16:06:28.596Z,6.54
2017-11-21T16:08:56.181Z,6.41
2017-11-21T16:11:23.791Z,6.32
2017-11-21T16:13:51.398Z,6.40
2017-11-21T16:16:19.006Z,6.30
2017-11-21T16:18:46.625Z,6.38
2017-11-21T16:21:14.222Z,6.39
2017-11-21T16:23:41.818Z,6.32
2017-11-21T16:26:09.697Z,6.38
2017-11-21T16:28:37.579Z,6.31
2017-11-21T16:31:05.230Z,6.34
2017-11-21T16:33:32.818Z,6.43
2017-11-21T16:36:00.417Z,6.48
2017-11-21T16:38:28.027Z,6.36
2017-11-21T16:40:55.619Z,6.44
2017-11-21T16:43:23.240Z,6.46
2017-11-21T16:45:50.868Z,6.41
2017-11-21T16:48:18.496Z,6.45
2017-11-21T16:50:46.163Z,6.50
2017-11-21T16:53:13.770Z,6.51
2017-11-21T16:55:41.432Z,6.48
2017-11-21T16:58:09.021Z,6.43
2017-11-21T17:00:36.604Z,6.41
2017-11-21T17:03:04.214Z,6.42
2017-11-21T17:05:31.803Z,6.29
2017-11-21T17:07:59.434Z,6.37
2017-11-21T17:10:27.330Z,6.24
2017-11-21T17:12:54.912Z,6.31
2017-11-21T17:15:22.522Z,6.23
2017-11-21T17:17:50.131Z,6.26
2017-11-21T17:20:17.769Z,6.28
2017-11-21T17:22:45.374Z,6.39
2017-11-21T17:25:13.301Z,6.38
2017-11-21T17:27:40.927Z,6.36
2017-11-21T17:30:08.519Z,6.32
2017-11-21T17:32:36.210Z,6.40
2017-11-21T17:35:03.912Z,6.42
2017-11-21T17:37:31.500Z,6.38
2017-11-21T17:39:59.212Z,6.38
2017-11-21T17:42:26.894Z,6.38
2017-11-21T17:44:54.491Z,6.40
2017-11-21T17:47:22.092Z,6.44
2017-11-21T17:49:49.729Z,6.41
2017-11-21T17:52:17.323Z,6.41
2017-11-21T17:54:44.965Z,6.46
2017-11-21T17:57:12.605Z,6.44
2017-11-21T17:59:40.305Z,6.49
2017-11-21T18:02:07.950Z,6.48
2017-11-21T18:04:35.535Z,6.39
2017-11-21T18:07:03.229Z,6.42
2017-11-21T18:09:30.882Z,6.38
2017-11-21T18:11:58.473Z,6.39
2017-11-21T18:14:26.096Z,6.43
2017-11-21T18:16:53.680Z,6.42
2017-11-21T18:19:21.432Z,6.35
2017-11-21T18:21:49.081Z,6.42
2017-11-21T18:24:16.885Z,6.45
2017-11-21T18:26:44.508Z,6.45
2017-11-21T18:29:12.113Z,6.39
2017-11-21T18:31:39.746Z,6.39
2017-11-21T18:34:07.325Z,6.41
2017-11-21T18:36:34.936Z,6.37
2017-11-21T18:39:02.550Z,6.41
2017-11-21T18:41:30.166Z,6.48
2017-11-21T18:43:57.797Z,6.47
2017-11-21T18:46:25.420Z,6.45
2017-11-21T18:48:53.021Z,6.46
2017-11-21T18:51:20.638Z,6.45
2017-11-21T18:53:48.352Z,6.45
2017-11-21T18:56:16.030Z,6.43
2017-11-21T18:58:43.653Z,6.33
2017-11-21T19:01:11.245Z,6.33
2017-11-21T19:03:38.886Z,6.35
2017-11-21T19:06:06.491Z,6.31
2017-11-21T19:08:34.127Z,6.34
2017-11-21T19:11:01.732Z,6.36
2017-11-21T19:13:29.350Z,6.38
2017-11-21T19:15:56.974Z,6.46
2017-11-21T19:18:24.641Z,6.43
2017-11-21T19:20:52.269Z,6.44
2017-11-21T19:23:19.878Z,6.38
2017-11-21T19:25:49.185Z,6.35
2017-11-21T19:28:17.682Z,6.34
2017-11-21T19:30:45.274Z,6.34
2017-11-21T19:33:13.017Z,6.34
2017-11-21T19:35:40.614Z,6.34
2017-11-21T19:38:08.202Z,6.33
2017-11-21T19:40:35.820Z,6.39
2017-11-21T19:43:03.436Z,6.42
2017-11-21T19:45:31.088Z,6.38
2017-11-21T19:47:58.690Z,6.33
2017-11-21T19:50:26.309Z,6.40
2017-11-21T19:52:53.934Z,6.32
2017-11-21T19:55:21.535Z,6.35
2017-11-21T19:57:49.173Z,6.35
2017-11-21T20:00:16.774Z,6.42
2017-11-21T20:02:44.365Z,6.38
2017-11-21T20:05:11.981Z,6.36
2017-11-21T20:07:39.591Z,6.35
2017-11-21T20:10:07.244Z,6.35
2017-11-21T20:12:43.938Z,6.33
2017-11-21T20:15:11.747Z,6.37
2017-11-21T20:17:39.360Z,6.38
2017-11-21T20:20:07.028Z,6.44
2017-11-21T20:22:34.667Z,6.43
2017-11-21T20:25:02.250Z,6.44
2017-11-21T20:30:06.977Z,6.46
2017-11-21T20:32:39.838Z,6.42
2017-11-21T20:35:16.163Z,6.47
2017-11-21T20:37:44.237Z,6.46
2017-11-21T20:40:12.175Z,6.55
2017-11-21T20:42:40.386Z,6.53
2017-11-21T20:45:08.632Z,6.52
2017-11-21T20:47:37.567Z,6.54
2017-11-21T20:50:07.854Z,6.57
2017-11-21T20:52:35.471Z,6.56
2017-11-21T20:55:03.075Z,6.58
2017-11-21T20:57:30.709Z,6.55
2017-11-21T20:59:58.304Z,6.61
2017-11-21T21:02:25.961Z,6.57
2017-11-21T21:04:53.602Z,6.51
2017-11-21T21:07:21.237Z,6.53
2017-11-21T21:09:48.932Z,6.50
2017-11-21T21:12:16.570Z,6.49
2017-11-21T21:14:44.231Z,6.47
2017-11-21T21:17:11.820Z,6.49
2017-11-21T21:19:39.426Z,6.52
2017-11-21T21:22:07.092Z,6.50
2017-11-21T21:24:34.738Z,6.51
2017-11-21T21:27:02.381Z,6.54
2017-11-21T21:29:30.059Z,6.53
2017-11-21T21:31:57.662Z,6.51
2017-11-21T21:34:25.287Z,6.50
2017-11-21T21:36:52.884Z,6.51
2017-11-21T21:39:20.525Z,6.53
2017-11-21T21:41:48.257Z,6.51
2017-11-21T21:44:16.121Z,6.48
2017-11-21T21:46:43.786Z,6.50
2017-11-21T21:49:11.394Z,6.52
2017-11-21T21:51:41.715Z,6.53
2017-11-21T21:54:09.334Z,6.50
2017-11-21T21:56:36.917Z,6.54
2017-11-21T21:59:04.773Z,6.52
2017-11-21T22:01:32.647Z,6.55
2017-11-21T22:04:00.309Z,6.56
2017-11-21T22:06:27.940Z,6.58
2017-11-21T22:08:55.572Z,6.58
2017-11-21T22:11:23.184Z,6.59
2017-11-21T22:13:50.806Z,6.54
2017-11-21T22:16:19.635Z,6.55
2017-11-21T22:18:47.209Z,6.60
2017-11-21T22:21:14.819Z,6.60
2017-11-21T22:23:42.445Z,6.55
2017-11-21T22:26:10.044Z,6.58
2017-11-21T22:28:37.697Z,6.60
2017-11-21T22:31:05.286Z,6.59
2017-11-21T22:33:32.865Z,6.60
2017-11-21T22:36:00.474Z,6.60
2017-11-21T22:38:28.079Z,6.60
2017-11-21T22:40:55.697Z,6.60
2017-11-21T22:43:23.619Z,6.62
2017-11-21T22:45:51.198Z,6.57
2017-11-21T22:48:19.060Z,6.56
2017-11-21T22:50:46.639Z,6.49
2017-11-21T22:53:14.262Z,6.50
2017-11-21T22:55:42.855Z,6.54
2017-11-21T22:58:10.465Z,6.55
2017-11-21T23:00:38.386Z,6.61
2017-11-21T23:03:05.977Z,6.59
2017-11-21T23:05:33.632Z,6.68
2017-11-21T23:08:01.579Z,6.67
2017-11-21T23:10:29.175Z,6.64
2017-11-21T23:12:56.802Z,6.54
2017-11-21T23:15:24.385Z,6.51
2017-11-21T23:17:52.058Z,6.66
2017-11-21T23:20:19.895Z,6.52
2017-11-21T23:22:47.487Z,6.59
2017-11-21T23:25:15.097Z,6.53
2017-11-21T23:27:42.684Z,6.51
2017-11-21T23:30:10.313Z,6.55
2017-11-21T23:32:38.210Z,6.59
2017-11-21T23:35:05.795Z,6.64
2017-11-21T23:37:33.406Z,6.60
2017-11-21T23:40:01.298Z,6.68
2017-11-21T23:42:28.933Z,6.69
2017-11-21T23:44:56.530Z,6.67
2017-11-21T23:47:24.126Z,6.65
2017-11-21T23:49:51.738Z,6.68
2017-11-21T23:52:19.352Z,6.66
2017-11-21T23:54:47.012Z,6.62
2017-11-21T23:57:14.630Z,6.71
2017-11-21T23:59:42.228Z,6.74
